Terminal Aerodrome Forecast
Issued by NWS Charleston, WV

Current Version | Previous Version | Graphics & Text | Print | Product List | Glossary On
Versions: 1 2 3 4 5 6 7 8 9 10 11 12 13 14 15 16 17 18 19 20 21 22 23
000
FTUS41 KRLX 291100
TAFHTS
TAF
KHTS 291128Z 2912/3012 VRB03KT 6SM BR BKN050 BKN150
      TEMPO 2912/2914 1SM BR FEW001
     FM291400 00000KT P6SM BKN050
     FM292100 00000KT P6SM SCT050
     FM300900 00000KT 3SM BR FEW001
     FM301100 00000KT 1 1/2SM BR SCT001=

USA.gov is the U.S. government's official web portal to all federal, state and local government web resources and services.